الصفحة الرئيسية
METAR-TAF:

METAR-TAF

مطار :

مطار باماكو موديبو كيتا الدولي

باماكو, مالي

دائرة عرض: 12-32N, خط طول: 007-57W, ارتفاع: 380 متر

مراقبة الطقس الحالي

تاريخ ووقت الإصدار 33 دقيقة قبل الساعة 11:30UTC
ريح 9 عقدة من الجنوب/الجنوب الغربي
درجة الحرارة 35°درجة مئوية
الرطوبة 44%
ضغط 1013 hPa
الرؤية 10 كم أو أكثر
الغيوم لا تقل 1500 م ولا وجود لمزنة ركامية السحاب الأسود

METAR: GABS 241130Z 21009KT CAVOK 35/21 Q1013 NOSIG

زمن: 12:03 (12:03 UTC)

توقعات

تاريخ ووقت الإصدار 55 دقيقة قبل الساعة 11:08UTC
التوقعات صالحة من24 الساعة 12 UTC إلى 25 الساعة 18 UTC
ريح 8 عقدة من الجنوب الغربي
الرؤية 10 كم أو أكثر
الغيوم لا تقل 1500 م ولا وجود لمزنة ركامية السحاب الأسود
نظرية الاحتمالات 40% :
مؤقت
من 24 الساعة 17 UTC إلى 24 الساعة 23 UTC
ريح 15 عقدةمن اتجاهات متغيرة تتزايد حتى 35 عقدة
الرؤية: 4000 متر
غيوم مفككة على ارتفاع 1500 قدم
غيوم قليلة على ارتفاع 3300 قدم, مزنة ركامية.
عاصفة رعدية, مطر

TAF: GABS 241108Z 2412/2518 23008KT CAVOK PROB40 TEMPO 2417/2423 VRB15G35KT 4000 TSRA BKN015 FEW033CB

أرصاد الطقس والتوقعات من أكثر من 4000 مطار (تقارير الطقس للمطار METAR والتنبؤ بالطقس بالمطارTAF).

المحطات المتاحة هي النقط الصفراء والحمراء على الخريطة.

حرك المؤشر فوق النقطة لمعرفة اسم المحطة.

ثم انقر لمعرفة أرصاد وتوقعات الطقس.

لتغيير الخارطة: اضغط على الأزرار الخضراء مع رمز الصليب الأسود للتكبير. على الزر الأخضر مع شرطة للتصغير، أو على الأسهم الخضراء للخرائط المجاورة.


METAR-TAF: